createdAt,value
2023-03-06T00:04:03.246Z,110.78260869565217
2023-03-06T00:15:01.115Z,113.38127090301003
2023-03-06T00:21:20.597Z,115.33110367892976
2023-03-06T00:27:39.181Z,112.84949832775919
2023-03-06T00:33:58.031Z,100.38461538461539
2023-03-06T00:40:17.041Z,109.93311036789298
2023-03-06T00:46:37.629Z,99.25418060200668
2023-03-06T00:52:56.890Z,86.25752508361204
2023-03-06T01:05:26.428Z,55.869565217391305
2023-03-06T01:11:45.727Z,52.919732441471574
2023-03-06T01:19:37.304Z,33.98996655518395
2023-03-06T01:25:56.504Z,33.197324414715716
2023-03-06T01:32:15.703Z,37.49832775919732
2023-03-06T01:38:34.557Z,40.38795986622073
2023-03-06T01:48:23.078Z,40.31438127090301
2023-03-06T01:54:41.763Z,42.869565217391305
2023-03-06T02:07:06.520Z,26.615384615384617
2023-03-06T02:13:26.888Z,20.498327759197323
2023-03-06T02:19:46.326Z,24.17056856187291
2023-03-06T02:26:06.400Z,22.525083612040135
2023-03-06T02:32:24.823Z,26.02006688963211
2023-03-06T02:39:08.182Z,28.377926421404684
2023-03-06T02:45:27.058Z,37.264214046822744
2023-03-06T02:51:45.808Z,34.61538461538461
2023-03-06T02:58:04.400Z,48.836120401337794
2023-03-06T03:07:49.193Z,78.61204013377926
2023-03-06T03:18:27.052Z,94.4314381270903
2023-03-06T03:24:45.995Z,109.05351170568562
2023-03-06T03:31:05.348Z,143.1571906354515
2023-03-06T03:37:24.085Z,182.1036789297659
2023-03-06T03:43:42.809Z,201.7591973244147
2023-03-06T03:50:01.920Z,208.7826086956522
2023-03-06T03:56:20.368Z,122.02341137123746
2023-03-06T04:04:35.740Z,101.68896321070234
2023-03-06T04:10:55.001Z,123.52173913043478
2023-03-06T04:17:43.989Z,146.9665551839465
2023-03-06T04:24:44.868Z,170.9933110367893
2023-03-06T04:31:03.538Z,150.36789297658862
2023-03-06T04:37:22.129Z,124.0066889632107
2023-03-06T04:43:40.827Z,93.4247491638796
2023-03-06T04:49:59.951Z,88.09030100334448
2023-03-06T05:04:57.514Z,83.63545150501672
2023-03-06T05:11:18.267Z,81.97324414715719
2023-03-06T05:17:38.424Z,130.23411371237458
2023-03-06T05:23:56.371Z,164.89966555183946
2023-03-06T05:30:17.250Z,179.13377926421404
2023-03-06T05:36:37.335Z,207.77591973244148
2023-03-06T05:45:40.142Z,208.33444816053512
2023-03-06T05:52:01.955Z,190.72909698996656
2023-03-06T05:58:24.216Z,210.64882943143812
2023-03-06T06:04:45.921Z,209.03678929765886
2023-03-06T06:15:34.350Z,282.47491638795987
2023-03-06T06:21:52.590Z,279.26421404682276
2023-03-06T06:28:17.884Z,286.7391304347826
2023-03-06T06:34:38.492Z,325.4782608695652
2023-03-06T06:45:20.236Z,390.32441471571906
2023-03-06T06:51:38.557Z,379.94983277591973
2023-03-06T06:57:58.714Z,327.8829431438127
2023-03-06T07:04:18.713Z,369.96321070234114
2023-03-06T07:11:18.824Z,365.95317725752506
2023-03-06T07:27:03.038Z,327.8628762541806
2023-03-06T07:38:53.948Z,379.96655518394647
2023-03-06T07:45:15.804Z,380.3645484949833
2023-03-06T07:51:36.934Z,424.9397993311037
2023-03-06T07:57:58.512Z,427.4314381270903
2023-03-06T08:13:34.329Z,417.59866220735785
2023-03-06T08:26:50.811Z,498.32441471571906
2023-03-06T08:42:46.663Z,541.1872909698997
2023-03-06T08:49:07.961Z,564.9866220735786
2023-03-06T08:55:28.833Z,567.4448160535117
2023-03-06T09:01:49.077Z,577.628762541806
2023-03-06T09:13:06.509Z,641.2006688963211
2023-03-06T09:19:27.485Z,615.9464882943143
2023-03-06T09:25:48.040Z,514.4548494983278
2023-03-06T09:32:11.750Z,456.38127090301003
2023-03-06T09:40:01.769Z,437.0802675585284
2023-03-06T09:49:33.383Z,354.33779264214047
2023-03-06T09:55:54.224Z,381.75919732441474
2023-03-06T10:02:14.923Z,344.6321070234114
2023-03-06T10:13:21.175Z,277.2809364548495
2023-03-06T10:25:21.992Z,172.77926421404683
2023-03-06T10:31:42.711Z,168.60535117056855
2023-03-06T10:38:03.307Z,169.23745819397993
2023-03-06T10:44:24.178Z,155.47491638795987
2023-03-06T10:50:44.390Z,168.74916387959865
2023-03-06T10:57:05.142Z,145.54849498327758
2023-03-06T11:03:26.273Z,173.73578595317727
2023-03-06T11:15:49.398Z,210.64882943143812
2023-03-06T11:25:33.987Z,240.4314381270903
2023-03-06T11:31:54.808Z,222.65551839464882
2023-03-06T11:38:15.797Z,202.03678929765886
2023-03-06T11:44:36.752Z,219.84615384615384
2023-03-06T11:51:25.699Z,192.81939799331104
2023-03-06T11:57:47.252Z,186.46822742474916
2023-03-06T12:04:09.191Z,190.87290969899666
2023-03-06T12:10:30.750Z,205.33779264214047
2023-03-06T12:16:52.490Z,139.7859531772575
2023-03-06T12:24:40.441Z,114.90301003344482
2023-03-06T12:31:02.300Z,92.47491638795987
2023-03-06T12:37:23.739Z,67.11705685618729
2023-03-06T12:43:45.450Z,49.979933110367895
2023-03-06T12:50:09.213Z,56.96989966555184
2023-03-06T12:57:56.612Z,81.34448160535118
2023-03-06T13:04:18.216Z,93.68561872909699
2023-03-06T13:10:40.573Z,80.54515050167224
2023-03-06T13:17:05.197Z,50.408026755852845
2023-03-06T13:23:28.293Z,38.779264214046826
2023-03-06T13:29:50.323Z,33.23411371237458
2023-03-06T13:36:12.504Z,61.11036789297659
2023-03-06T13:42:33.968Z,49.78929765886288
2023-03-06T13:48:55.568Z,31.906354515050168
2023-03-06T13:55:17.228Z,31.812709030100333
2023-03-06T14:01:39.739Z,38.87290969899666
2023-03-06T14:08:01.390Z,32.070234113712374
2023-03-06T14:14:22.879Z,45.94983277591973
2023-03-06T14:25:34.800Z,36.381270903010034
2023-03-06T14:31:56.088Z,34.32107023411371
2023-03-06T14:38:17.663Z,37.14046822742475
2023-03-06T14:45:36.867Z,45.27759197324415
2023-03-06T14:51:58.026Z,26.183946488294314
2023-03-06T14:58:19.376Z,38.197324414715716
2023-03-06T15:04:40.652Z,33.675585284280935
2023-03-06T15:11:02.213Z,31.565217391304348
2023-03-06T15:17:23.483Z,40.74916387959866
2023-03-06T15:26:32.520Z,75.06020066889631
2023-03-06T15:32:53.957Z,79.08361204013377
2023-03-06T15:39:16.994Z,111.29096989966555
2023-03-06T15:45:38.622Z,127.93645484949833
2023-03-06T15:52:00.483Z,113.99665551839465
2023-03-06T15:58:21.954Z,131.94314381270902
2023-03-06T16:04:43.273Z,123.51505016722408
2023-03-06T16:13:22.735Z,109.48494983277592
2023-03-06T16:19:44.282Z,111.57859531772576
2023-03-06T16:26:06.129Z,109.27759197324414
2023-03-06T16:43:08.004Z,91.15050167224081
2023-03-06T16:49:29.256Z,90.96655518394648
2023-03-06T16:55:50.271Z,122.45150501672241
2023-03-06T17:02:12.063Z,111.20066889632108
2023-03-06T17:12:49.548Z,126.66220735785953
2023-03-06T17:21:39.428Z,149.65551839464882
2023-03-06T17:33:07.579Z,169.2876254180602
2023-03-06T17:39:27.168Z,166.81939799331104
2023-03-06T17:50:26.044Z,181.95652173913044
2023-03-06T17:56:44.852Z,201.77257525083613
2023-03-06T18:03:05.949Z,197.438127090301
2023-03-06T18:09:24.772Z,234.89297658862876
2023-03-06T18:15:43.489Z,252.51170568561872
2023-03-06T18:26:58.653Z,317.67892976588627
2023-03-06T18:36:21.103Z,256.59866220735785
2023-03-06T18:42:40.005Z,261.4448160535117
2023-03-06T18:48:59.511Z,264.98327759197326
2023-03-06T19:03:38.815Z,271.2107023411371
2023-03-06T19:17:25.228Z,247.36454849498327
2023-03-06T19:23:43.827Z,258.46153846153845
2023-03-06T19:30:03.214Z,252.50836120401337
2023-03-06T19:36:22.519Z,244.1705685618729
2023-03-06T19:48:38.406Z,235.58528428093646
2023-03-06T19:54:57.332Z,246.2408026755853
2023-03-06T20:06:23.533Z,237.50501672240802
2023-03-06T20:12:41.958Z,245.66889632107024
2023-03-06T20:19:00.727Z,264.5819397993311
2023-03-06T20:25:19.397Z,238.7257525083612
2023-03-06T20:31:37.397Z,257.60869565217394
2023-03-06T20:37:56.314Z,280.5150501672241
2023-03-06T20:44:14.800Z,300.75250836120404
2023-03-06T20:50:33.244Z,295.571906354515
2023-03-06T20:56:51.641Z,298.5484949832776
2023-03-06T21:03:11.592Z,301.3678929765886
2023-03-06T21:09:30.088Z,339.24749163879596
2023-03-06T21:33:34.933Z,440.52842809364546
2023-03-06T21:39:53.977Z,470.10033444816054
2023-03-06T21:52:49.118Z,560.113712374582
2023-03-06T22:06:13.119Z,639.9598662207358
2023-03-06T22:12:31.245Z,695.571906354515
2023-03-06T22:18:50.121Z,777.4147157190636
2023-03-06T22:25:08.373Z,839.8160535117057
2023-03-06T22:39:30.699Z,1029.3545150501673
2023-03-06T22:47:14.864Z,1135.5016722408027
2023-03-06T23:04:21.801Z,1387.324414715719
2023-03-06T23:10:40.807Z,1485.8628762541805
2023-03-06T23:22:23.409Z,1537.836120401338
2023-03-06T23:28:41.942Z,1600.8929765886287
2023-03-06T23:35:01.389Z,1639.5250836120401
2023-03-06T23:45:27.080Z,1664.1505016722408
2023-03-06T23:51:45.340Z,1660.9933110367892
